Portada
METAR-TAF:

METAR-TAF

Aeropuertos :

Aeropuerto Internacional Enrique Malek

David, Panamá

latitud: 08-24N, longitud: 082-25W, altitud: 29 m

Observación

El informe se hizo hace 51 minutos, a las 16:00 UTC
Viento 3 kt del suroeste
Temperatura 31°C
Humedad 66%
Presión 1009 hPa
Visibilidad 10 km o más
Nubes dispersas a una altura de 1700 ft

METAR: MPDA 171600Z 22003KT 9999 SCT017 31/24 Q1009

Hora: 11:51 (16:51 UTC)

Pronóstico

El informe se hizo hace 6 horas y 21 minutos, a las 10:30 UTC
Pronóstico válido del 17 a las 12 UTC al 17 a las 24 UTC
Viento 6 kt del sur-suroeste
Visibilidad 10 km o más
Nubes dispersas a una altura de 1800 ft
Nubes dispersas a una altura de 10000 ft
Temporalmente
del 17 a las 19 UTC al 17 a las 23 UTC
Visibilidad: 7000 m
Nubes dispersas a una altura de 1600 ft, Cumulonimbus.
Cielo nuboso a una altura de 9000 ft
lluvia

TAF: MPDA 171030Z 1712/1724 21006KT 9999 SCT018 SCT100 TEMPO 1719/1723 7000 RA SCT016CB BKN090

Observaciones y pronósticos meteorológicos de más de 4000 aeropuertos (mensajes METAR y TAF).

Los puntos amarillos y rojos representan las estaciones disponibles.

Ponga el ratón en el punto deseado para ver el nombre de la estación.

Haga clic para ver las observaciones y los pronósticos meteorológicos.

Para cambiar el mapa : haga clic en los botones verdes con una cruz de color negro para hacer un zoom, en el botón verde con un guión para alejar o en las flechas verdes para mapas adyacentes.


METAR-TAF: